Nyssa, Oregon
Current Conditions -  °F | °C
As of 10:53 AM on Thursday 25 Dec 2014 (Local Time) from KONO Reporting Station
Clear Clear  
Wind Chill: 29°   Ceiling: Unl
Heat Index: 39°   Visibility: 10mi
Dew Point: 24°   Wind: 20mph
Humidity: 55%   Direction: 320°NW
Pressure: 30.02"   Gusts: 28mph
Location:  43.88°N, 116.99°W
Report Text: KONO 251753Z AUTO 32017G24KT 10SM CLR 04/M04 A3002 RMK AO2 SLP180 T00391044 10039 20011 52030
Loading
Personal Weather Stations






























Interactive Weather Map New forecast layout! Learn more

10-Day Weather Forecast

Advertisements
Track Severe Weather on mobile